Time;durP1;ratioP1;P1;durP2;ratioP2;P2;SDS_P1;SDS_P2;PMS_P1;PMS_P2;Temp;Humidity;BMP_temperature;BMP_pressure;BME280_temperature;BME280_humidity;BME280_pressure;Samples;Min_cycle;Max_cycle;Signal;HPM_P1;HPM_P2
2022/05/18 00:00:23;;;;;;;3.28;1.00;;;;;;;13.97;36.73;101091.25;4957372;28;101307;-87
2022/05/18 00:02:48;;;;;;;4.00;1.45;;;;;;;13.98;37.28;101117.56;4958792;28;96837;-88
2022/05/18 00:05:14;;;;;;;4.25;1.35;;;;;;;13.99;36.74;101132.50;4976043;28;96727;-88
2022/05/18 00:07:40;;;;;;;2.13;1.10;;;;;;;13.90;37.03;101119.59;4985172;28;97945;-88
2022/05/18 00:10:06;;;;;;;5.80;1.30;;;;;;;13.85;37.46;101112.78;4954803;28;100834;-88
2022/05/18 00:12:31;;;;;;;3.20;1.30;;;;;;;13.74;37.34;101107.88;4972219;28;96900;-88
2022/05/18 00:14:57;;;;;;;2.90;1.63;;;;;;;13.91;37.00;101133.69;4957736;28;97524;-88
2022/05/18 00:17:23;;;;;;;7.22;1.13;;;;;;;13.82;36.95;101127.81;4973654;28;100720;-88
2022/05/18 00:19:49;;;;;;;2.13;1.10;;;;;;;13.82;36.96;101137.50;4983657;28;99959;-88
2022/05/18 00:22:14;;;;;;;2.63;1.50;;;;;;;13.80;36.98;101144.59;4959154;28;96910;-88
2022/05/18 00:24:40;;;;;;;9.38;1.75;;;;;;;13.83;37.55;101147.13;4975219;28;96830;-88
2022/05/18 00:27:06;;;;;;;3.42;1.70;;;;;;;13.76;37.48;101145.63;4974878;28;101510;-88
2022/05/18 00:29:32;;;;;;;6.47;1.50;;;;;;;13.77;37.60;101150.84;4980335;28;100379;-88
2022/05/18 00:31:58;;;;;;;3.75;1.30;;;;;;;13.74;37.60;101156.22;5004588;28;97135;-87
2022/05/18 00:34:23;;;;;;;5.43;1.50;;;;;;;13.78;37.57;101152.56;4978594;28;97055;-88
2022/05/18 00:36:49;;;;;;;4.15;1.38;;;;;;;13.66;37.57;101160.91;4977373;28;97486;-88
2022/05/18 00:39:15;;;;;;;1.95;1.38;;;;;;;13.66;37.65;101167.97;4968618;28;100203;-88
2022/05/18 00:41:41;;;;;;;3.22;1.52;;;;;;;13.59;37.71;101157.63;4993942;28;96861;-87
2022/05/18 00:44:07;;;;;;;3.30;1.50;;;;;;;13.50;38.00;101147.38;4994412;28;96892;-88
2022/05/18 00:46:32;;;;;;;2.88;1.30;;;;;;;13.51;37.70;101170.19;4979385;28;98124;-90
2022/05/18 00:48:58;;;;;;;4.55;1.38;;;;;;;13.49;37.62;101179.91;4961004;28;101568;-88
2022/05/18 00:51:35;;;;;;;4.35;1.67;;;;;;;13.49;37.69;101181.69;4958550;28;96738;-88
2022/05/18 00:54:21;;;;;;;2.53;1.20;;;;;;;13.43;38.21;101188.03;4992307;28;96997;-87
2022/05/18 00:56:54;;;;;;;3.63;1.33;;;;;;;13.39;37.72;101191.69;4958702;28;101973;-87
2022/05/18 00:59:33;;;;;;;4.03;1.42;;;;;;;13.12;37.91;101162.63;4975491;28;98367;-87
2022/05/18 01:01:59;;;;;;;6.40;2.00;;;;;;;13.06;38.39;101175.09;4990816;28;96869;-88
2022/05/18 01:04:25;;;;;;;7.78;1.52;;;;;;;13.08;38.62;101187.31;4959871;28;97433;-87
2022/05/18 01:07:00;;;;;;;3.13;1.70;;;;;;;13.13;38.28;101188.06;4979789;28;101320;-87
2022/05/18 01:09:34;;;;;;;4.05;1.48;;;;;;;13.19;38.10;101200.19;4957865;28;101294;-87
2022/05/18 01:12:00;;;;;;;3.63;1.23;;;;;;;13.10;38.34;101197.84;4984079;28;96654;-88
2022/05/18 01:14:30;;;;;;;3.45;1.27;;;;;;;13.11;38.33;101204.81;4961452;28;97206;-87
2022/05/18 01:16:56;;;;;;;4.13;1.30;;;;;;;13.26;37.92;101206.16;4960996;28;100553;-88
2022/05/18 01:19:44;;;;;;;1.98;1.33;;;;;;;13.00;38.78;101207.81;5004429;28;98655;-86
2022/05/18 01:22:37;;;;;;;8.15;1.65;;;;;;;12.71;38.53;101163.84;4974054;28;96783;-87
2022/05/18 01:25:27;;;;;;;3.55;1.20;;;;;;;12.95;38.39;101209.72;4973604;28;97223;-88
2022/05/18 01:27:54;;;;;;;4.65;1.67;;;;;;;12.98;38.71;101212.25;4974304;28;98571;-88
2022/05/18 01:30:20;;;;;;;7.13;1.90;;;;;;;12.97;38.72;101213.13;4960406;28;100380;-87
2022/05/18 01:32:52;;;;;;;3.35;1.20;;;;;;;12.83;38.98;101199.53;4975742;28;97295;-88
2022/05/18 01:35:21;;;;;;;6.07;1.60;;;;;;;12.83;38.89;101213.56;4963456;28;96820;-88
2022/05/18 01:37:46;;;;;;;3.85;1.50;;;;;;;12.80;39.01;101212.78;5005197;28;101736;-88
2022/05/18 01:40:41;;;;;;;6.15;1.17;;;;;;;12.64;39.40;101197.41;4974469;28;100256;-88
2022/05/18 01:43:19;;;;;;;3.92;1.30;;;;;;;12.71;38.94;101224.44;5005015;27;96925;-89
2022/05/18 01:45:50;;;;;;;2.63;1.52;;;;;;;12.71;39.55;101227.06;4992222;28;97170;-88
2022/05/18 01:48:18;;;;;;;5.60;1.48;;;;;;;12.51;39.52;101214.50;4974224;28;98399;-87
2022/05/18 01:50:44;;;;;;;3.30;1.50;;;;;;;12.65;39.60;101240.41;4976441;28;98293;-88
2022/05/18 01:53:10;;;;;;;4.05;1.50;;;;;;;12.42;39.84;101206.81;4998230;28;97135;-86
2022/05/18 01:55:36;;;;;;;5.32;1.88;;;;;;;12.53;40.45;101230.22;4965111;28;96918;-87
2022/05/18 01:58:03;;;;;;;2.17;1.20;;;;;;;12.54;40.16;101251.28;4974687;28;97558;-87
2022/05/18 02:00:31;;;;;;;5.50;1.50;;;;;;;12.48;40.87;101242.66;4974977;28;97095;-87
2022/05/18 02:02:57;;;;;;;2.60;1.50;;;;;;;12.45;40.74;101249.75;4977084;28;97204;-88
2022/05/18 02:05:23;;;;;;;5.20;1.33;;;;;;;12.43;40.81;101248.94;4973919;28;97155;-88
2022/05/18 02:07:49;;;;;;;3.90;1.60;;;;;;;12.38;40.85;101257.84;4976788;28;101454;-89
2022/05/18 02:10:15;;;;;;;7.75;1.50;;;;;;;12.33;40.99;101247.44;4987083;28;98347;-88
2022/05/18 02:12:41;;;;;;;2.97;1.52;;;;;;;12.39;40.66;101251.66;4992121;28;96672;-87
2022/05/18 02:15:07;;;;;;;3.97;1.60;;;;;;;12.38;40.33;101255.22;4970121;28;96889;-88
2022/05/18 02:17:33;;;;;;;4.75;1.58;;;;;;;12.19;40.40;101255.72;4978693;28;97454;-88
2022/05/18 02:19:59;;;;;;;3.33;1.27;;;;;;;12.27;40.38;101259.91;4959752;28;100358;-88
2022/05/18 02:22:25;;;;;;;3.35;1.40;;;;;;;12.19;40.63;101274.13;4955529;28;96933;-88
2022/05/18 02:24:51;;;;;;;2.60;1.38;;;;;;;12.13;40.82;101274.28;4959344;28;96989;-88
2022/05/18 02:27:17;;;;;;;3.35;1.33;;;;;;;11.99;41.35;101279.03;4958178;28;101223;-88
2022/05/18 02:29:43;;;;;;;3.00;1.40;;;;;;;11.97;40.57;101286.94;4975457;28;100274;-87
2022/05/18 02:32:09;;;;;;;5.35;1.60;;;;;;;11.96;40.77;101282.59;4956663;28;96665;-87
2022/05/18 02:34:35;;;;;;;3.63;1.38;;;;;;;11.93;41.12;101287.09;4976230;28;97190;-87
2022/05/18 02:37:01;;;;;;;5.60;1.60;;;;;;;11.85;41.05;101276.72;4960145;28;101075;-86
2022/05/18 02:39:27;;;;;;;3.55;1.73;;;;;;;11.95;41.53;101293.16;4960136;28;99859;-87
2022/05/18 02:41:52;;;;;;;3.13;1.30;;;;;;;11.83;41.35;101283.75;4973265;28;97174;-88
2022/05/18 02:44:18;;;;;;;10.05;1.70;;;;;;;11.85;41.53;101289.00;4992935;28;97504;-88
2022/05/18 02:46:43;;;;;;;3.15;1.60;;;;;;;11.86;41.40;101298.63;4964269;28;100520;-87
2022/05/18 02:49:10;;;;;;;6.70;1.58;;;;;;;11.73;41.70;101298.91;4978392;28;98446;-87
2022/05/18 02:51:35;;;;;;;3.60;1.60;;;;;;;11.65;41.79;101298.22;4975495;28;96749;-87
2022/05/18 02:56:05;;;;;;;4.05;1.52;;;;;;;11.70;41.62;101306.88;4975694;28;96953;-87
2022/05/18 02:56:46;;;;;;;6.40;1.52;;;;;;;11.60;41.75;101305.31;4993542;28;101498;-87
2022/05/18 02:59:12;;;;;;;2.83;1.25;;;;;;;11.32;42.13;101261.28;4954356;28;101060;-87
2022/05/18 03:01:39;;;;;;;6.15;1.73;;;;;;;11.68;42.39;101308.66;4962164;28;97102;-87
2022/05/18 03:04:05;;;;;;;7.78;1.60;;;;;;;11.61;42.51;101322.84;4988232;28;97788;-87
2022/05/18 03:06:30;;;;;;;4.68;1.45;;;;;;;11.49;42.36;101309.97;5002446;28;97803;-86
2022/05/18 03:08:56;;;;;;;3.42;1.60;;;;;;;11.64;42.45;101328.06;4981865;28;99950;-88
2022/05/18 03:11:21;;;;;;;5.18;1.60;;;;;;;11.53;42.79;101328.28;4975949;28;97033;-87
2022/05/18 03:13:47;;;;;;;5.03;1.30;;;;;;;11.52;42.60;101330.97;4956277;28;97469;-88
2022/05/18 03:16:13;;;;;;;5.13;1.27;;;;;;;11.54;42.39;101339.66;4972869;28;101060;-88
2022/05/18 03:18:38;;;;;;;4.82;1.58;;;;;;;11.52;43.00;101337.06;4975883;28;100417;-87
2022/05/18 03:23:48;;;;;;;4.53;1.98;;;;;;;11.33;42.76;101325.22;4976575;28;96900;-88
2022/05/18 03:26:16;;;;;;;4.50;1.55;;;;;;;11.43;42.98;101346.91;4973197;28;101307;-87
2022/05/18 03:28:46;;;;;;;9.20;1.67;;;;;;;11.36;43.51;101348.81;4960471;28;101530;-86
2022/05/18 03:31:11;;;;;;;4.35;1.80;;;;;;;11.33;42.83;101349.72;4983915;28;96763;-87
2022/05/18 03:33:37;;;;;;;5.95;1.50;;;;;;;11.32;42.89;101349.78;4993597;28;97144;-88
2022/05/18 03:36:05;;;;;;;3.28;1.50;;;;;;;11.03;43.40;101313.59;4975143;28;98160;-88
2022/05/18 03:38:32;;;;;;;3.38;1.63;;;;;;;11.26;43.00;101347.28;4956198;28;100913;-87
2022/05/18 03:40:57;;;;;;;6.18;2.15;;;;;;;11.23;43.30;101358.72;4973032;28;96721;-87
2022/05/18 03:43:24;;;;;;;8.27;1.50;;;;;;;11.30;42.82;101367.34;4978686;28;97078;-87
2022/05/18 03:45:50;;;;;;;3.97;1.65;;;;;;;11.18;43.26;101357.94;4966068;28;100692;-87
2022/05/18 03:48:17;;;;;;;3.67;1.70;;;;;;;11.23;43.01;101369.22;4991105;28;101317;-88
2022/05/18 03:50:46;;;;;;;2.88;1.70;;;;;;;11.30;42.82;101367.34;4959486;28;97165;-89
2022/05/18 03:53:12;;;;;;;4.20;1.70;;;;;;;11.30;43.53;101368.19;4992802;28;96785;-88
2022/05/18 03:55:40;;;;;;;3.55;1.70;;;;;;;11.40;43.05;101381.16;4975328;28;101415;-88
2022/05/18 03:58:06;;;;;;;2.35;1.48;;;;;;;11.43;42.92;101388.97;4974352;28;101263;-88
2022/05/18 04:00:33;;;;;;;4.75;1.95;;;;;;;11.33;43.22;101378.66;4958674;28;96778;-88
2022/05/18 04:03:00;;;;;;;10.98;2.13;;;;;;;11.21;43.30;101364.91;4994346;28;97018;-88
2022/05/18 04:05:26;;;;;;;6.68;1.83;;;;;;;11.40;43.08;101386.41;4961994;28;100877;-88
2022/05/18 04:07:52;;;;;;;3.40;1.80;;;;;;;11.10;43.05;101359.84;4962713;28;101575;-88
2022/05/18 04:10:18;;;;;;;4.72;2.20;;;;;;;11.29;42.84;101387.50;4974941;28;97204;-88
2022/05/18 04:12:44;;;;;;;4.78;1.92;;;;;;;11.35;43.20;101393.53;4980272;28;97192;-89
2022/05/18 04:15:16;;;;;;;4.03;1.48;;;;;;;11.46;42.71;101375.75;4980036;28;98068;-88
2022/05/18 04:17:45;;;;;;;5.30;1.90;;;;;;;11.22;43.03;101335.94;4963858;28;101522;-89
2022/05/18 04:20:17;;;;;;;6.63;1.80;;;;;;;11.52;42.74;101373.88;4971623;28;96762;-87
2022/05/18 04:22:42;;;;;;;4.70;1.55;;;;;;;11.80;42.58;101394.31;5015315;28;97116;-88
2022/05/18 04:25:09;;;;;;;3.13;1.63;;;;;;;11.94;42.33;101402.81;4977321;28;100218;-88
2022/05/18 04:27:35;;;;;;;2.63;1.77;;;;;;;12.08;42.14;101397.22;4983923;28;100545;-88
2022/05/18 04:30:00;;;;;;;6.40;2.25;;;;;;;12.08;42.25;101399.00;4961772;28;97528;-87
2022/05/18 04:32:26;;;;;;;5.43;2.13;;;;;;;12.12;42.06;101401.50;4969297;28;96896;-87
2022/05/18 04:34:52;;;;;;;4.82;1.80;;;;;;;12.17;41.96;101383.00;4968459;28;101325;-87
2022/05/18 04:37:18;;;;;;;4.53;1.90;;;;;;;12.14;42.06;101396.22;4961465;28;100011;-88
2022/05/18 04:39:44;;;;;;;6.20;1.75;;;;;;;12.47;42.11;101410.34;4962292;28;97149;-88
2022/05/18 04:42:10;;;;;;;4.88;2.00;;;;;;;12.59;41.28;101411.78;4978680;28;96937;-87
2022/05/18 04:44:36;;;;;;;4.80;1.80;;;;;;;12.57;41.29;101390.78;4978123;28;98190;-87
2022/05/18 04:47:02;;;;;;;4.10;1.85;;;;;;;12.72;41.00;101404.47;4960968;28;101539;-88
2022/05/18 04:49:28;;;;;;;5.40;1.80;;;;;;;12.89;40.90;101405.75;4995333;28;96728;-88
2022/05/18 04:51:54;;;;;;;4.88;2.10;;;;;;;13.03;41.33;101412.41;4966950;28;97501;-88
2022/05/18 04:54:19;;;;;;;4.60;1.70;;;;;;;13.29;41.15;101417.00;4973336;28;98560;-87
2022/05/18 04:56:45;;;;;;;4.95;1.92;;;;;;;13.42;40.00;101409.63;4961408;28;101277;-89
2022/05/18 04:59:12;;;;;;;11.10;2.17;;;;;;;13.76;39.75;101412.16;4978488;28;97158;-87
2022/05/18 05:01:38;;;;;;;7.93;2.00;;;;;;;13.81;38.98;101413.72;4962138;28;97074;-88
2022/05/18 05:04:09;;;;;;;5.72;2.05;;;;;;;13.92;39.09;101409.91;4961022;28;101880;-88
2022/05/18 05:06:43;;;;;;;5.40;2.00;;;;;;;13.95;38.91;101400.09;4967827;28;99985;-89
2022/05/18 05:09:09;;;;;;;7.30;2.10;;;;;;;14.32;38.43;101413.94;4952156;28;97349;-91
2022/05/18 05:11:34;;;;;;;3.97;2.10;;;;;;;14.41;38.32;101395.16;4961619;28;97100;-89
2022/05/18 05:14:00;;;;;;;5.07;1.92;;;;;;;14.53;38.33;101415.91;4991507;28;100427;-87
2022/05/18 05:16:28;;;;;;;4.60;2.08;;;;;;;14.69;38.13;101424.19;4957262;28;101631;-88
2022/05/18 05:18:53;;;;;;;3.75;2.38;;;;;;;14.94;37.25;101422.41;4989096;28;97053;-86
2022/05/18 05:21:19;;;;;;;6.90;2.15;;;;;;;14.85;36.96;101416.59;4975177;28;97396;-88
2022/05/18 05:23:46;;;;;;;4.55;1.80;;;;;;;15.03;36.61;101423.00;4986532;28;98476;-85
2022/05/18 05:26:13;;;;;;;4.63;2.08;;;;;;;15.56;36.08;101418.44;4971958;28;100763;-83
2022/05/18 05:28:39;;;;;;;8.57;1.80;;;;;;;15.90;35.41;101411.03;4956814;28;96846;-83
2022/05/18 05:31:06;;;;;;;3.90;1.83;;;;;;;16.50;34.62;101420.94;4942918;28;96829;-81
2022/05/18 05:33:33;;;;;;;4.50;2.10;;;;;;;16.90;33.76;101410.47;4963529;28;101576;-83
2022/05/18 05:35:59;;;;;;;4.15;1.50;;;;;;;17.71;32.11;101421.88;4956856;28;101389;-83
2022/05/18 05:38:24;;;;;;;4.40;2.00;;;;;;;18.09;31.36;101428.09;4974062;28;97042;-80
2022/05/18 05:40:50;;;;;;;4.03;1.88;;;;;;;18.88;30.51;101425.97;4975387;28;96945;-78
2022/05/18 05:43:16;;;;;;;3.83;1.60;;;;;;;19.85;29.38;101426.19;4953822;28;100750;-81
2022/05/18 05:45:41;;;;;;;5.70;1.70;;;;;;;21.00;27.98;101422.19;4986163;28;101215;-80
2022/05/18 05:48:09;;;;;;;7.88;1.80;;;;;;;21.95;26.39;101412.78;4989444;28;97528;-79
2022/05/18 05:50:35;;;;;;;6.13;2.10;;;;;;;22.81;25.49;101421.34;4968976;28;97375;-81
2022/05/18 05:53:00;;;;;;;3.45;1.77;;;;;;;23.58;24.90;101421.38;4990137;28;97997;-81
2022/05/18 05:55:27;;;;;;;3.47;1.88;;;;;;;23.81;24.77;101427.81;4973628;28;98284;-81
2022/05/18 05:57:56;;;;;;;3.65;1.67;;;;;;;23.89;24.42;101410.19;4985211;28;97414;-81
2022/05/18 06:00:22;;;;;;;6.32;2.22;;;;;;;24.90;23.49;101425.94;4991962;28;98111;-81
2022/05/18 06:02:50;;;;;;;6.97;1.95;;;;;;;25.58;22.80;101421.50;4969470;28;101687;-84
2022/05/18 06:05:16;;;;;;;7.00;1.77;;;;;;;26.46;21.82;101425.13;4976267;28;101111;-81
2022/05/18 06:07:43;;;;;;;4.68;2.63;;;;;;;26.56;21.39;101424.28;4975814;28;97026;-83
2022/05/18 06:10:09;;;;;;;6.50;1.88;;;;;;;26.70;21.39;101430.31;4988873;28;97283;-83
2022/05/18 06:12:34;;;;;;;4.03;2.10;;;;;;;27.04;21.27;101421.06;4976759;28;97786;-83
2022/05/18 06:15:00;;;;;;;8.90;2.05;;;;;;;27.27;20.83;101416.41;4945668;28;100653;-84
2022/05/18 06:17:26;;;;;;;4.82;2.20;;;;;;;27.16;20.51;101419.16;4982044;28;96795;-83
2022/05/18 06:19:51;;;;;;;10.93;1.90;;;;;;;27.09;20.78;101432.28;4971572;28;96802;-83
2022/05/18 06:22:17;;;;;;;4.95;1.98;;;;;;;27.16;20.92;101413.78;4973190;28;98203;-83
2022/05/18 06:24:47;;;;;;;6.18;2.20;;;;;;;27.96;20.58;101433.72;4974775;28;101175;-83
2022/05/18 06:27:13;;;;;;;4.88;2.38;;;;;;;28.35;20.20;101431.06;4980565;28;97383;-84
2022/05/18 06:29:39;;;;;;;4.22;2.00;;;;;;;29.04;19.61;101430.09;4972533;28;96905;-79
2022/05/18 06:32:05;;;;;;;7.03;2.20;;;;;;;28.62;19.70;101425.88;4969486;28;101047;-81
2022/05/18 06:34:31;;;;;;;5.30;2.42;;;;;;;28.25;19.63;101414.88;4974894;28;101018;-80
2022/05/18 06:36:56;;;;;;;4.47;2.03;;;;;;;28.88;19.27;101433.34;4991954;28;96757;-77
2022/05/18 06:39:22;;;;;;;3.15;1.98;;;;;;;28.33;19.80;101433.94;4987897;28;97035;-82
2022/05/18 06:41:47;;;;;;;7.22;1.70;;;;;;;27.44;20.38;101405.97;4978820;28;101249;-80
2022/05/18 06:44:13;;;;;;;4.35;2.00;;;;;;;27.58;20.14;101440.66;4981264;28;101520;-84
2022/05/18 06:46:39;;;;;;;2.92;1.67;;;;;;;29.18;19.33;101440.44;4959662;28;96779;-82
2022/05/18 06:49:06;;;;;;;11.25;1.90;;;;;;;29.20;19.32;101442.97;4989977;28;96805;-83
2022/05/18 06:51:34;;;;;;;3.90;1.60;;;;;;;30.06;18.18;101443.63;4957312;28;101482;-78
2022/05/18 06:54:00;;;;;;;6.70;1.83;;;;;;;29.93;18.42;101446.72;4968348;28;101338;-81
2022/05/18 06:56:29;;;;;;;8.82;1.83;;;;;;;30.53;18.25;101454.28;4973483;28;98241;-76
2022/05/18 06:58:55;;;;;;;4.50;2.00;;;;;;;29.20;18.90;101418.66;4986166;28;97597;-76
2022/05/18 07:01:21;;;;;;;3.50;1.80;;;;;;;29.04;18.65;101455.25;4960563;28;101271;-76
2022/05/18 07:03:47;;;;;;;4.97;2.00;;;;;;;30.03;18.20;101445.78;4967206;28;97545;-77
2022/05/18 07:06:14;;;;;;;4.47;2.10;;;;;;;30.06;18.10;101456.31;4985748;28;97429;-77
2022/05/18 07:08:40;;;;;;;5.68;2.10;;;;;;;29.93;18.07;101453.94;4969796;28;97027;-77
2022/05/18 07:11:07;;;;;;;4.00;1.75;;;;;;;30.56;17.70;101463.97;4979166;28;101206;-77
2022/05/18 07:13:36;;;;;;;4.45;2.00;;;;;;;30.84;17.54;101462.88;4939813;28;101512;-76
2022/05/18 07:16:02;;;;;;;5.35;1.85;;;;;;;29.80;18.21;101475.13;4964590;28;96792;-81
2022/05/18 07:18:29;;;;;;;2.78;1.83;;;;;;;30.38;18.29;101464.81;4947538;28;97296;-77
2022/05/18 07:21:02;;;;;;;2.53;1.70;;;;;;;31.03;17.71;101467.25;4946855;28;100871;-76
2022/05/18 07:23:28;;;;;;;3.95;1.60;;;;;;;30.86;18.18;101460.88;4973416;28;101824;-77
2022/05/18 07:25:55;;;;;;;5.75;1.80;;;;;;;31.43;17.77;101462.31;4973367;28;96891;-75
2022/05/18 07:28:22;;;;;;;6.45;1.83;;;;;;;31.58;17.68;101466.94;4953623;28;97596;-77
2022/05/18 07:30:49;;;;;;;4.03;1.98;;;;;;;31.82;17.74;101467.22;4966172;28;100939;-78
2022/05/18 07:33:14;;;;;;;3.08;1.92;;;;;;;32.02;17.36;101463.25;4973232;28;100889;-74
2022/05/18 07:35:40;;;;;;;2.40;1.52;;;;;;;32.54;17.04;101471.19;4975454;28;97102;-75
2022/05/18 07:38:06;;;;;;;2.65;1.80;;;;;;;32.41;16.88;101465.41;4957040;28;96848;-75
2022/05/18 07:40:33;;;;;;;4.70;1.90;;;;;;;31.51;17.48;101473.19;4955178;28;101413;-76
2022/05/18 07:43:01;;;;;;;4.53;1.92;;;;;;;32.00;17.26;101462.59;4980190;28;101571;-75
2022/05/18 07:45:27;;;;;;;5.22;1.60;;;;;;;31.78;17.04;101467.56;4977983;28;96906;-73
2022/05/18 07:47:52;;;;;;;3.78;1.90;;;;;;;31.73;17.32;101469.06;4971668;28;97210;-73
2022/05/18 07:50:20;;;;;;;3.22;1.80;;;;;;;31.76;17.44;101477.72;4982516;28;97926;-73
2022/05/18 07:52:45;;;;;;;8.10;1.83;;;;;;;31.89;17.33;101471.84;4975607;28;97761;-73
2022/05/18 07:55:11;;;;;;;3.65;1.88;;;;;;;31.31;16.91;101461.69;4956571;28;96738;-72
2022/05/18 07:57:36;;;;;;;6.10;2.20;;;;;;;31.90;17.03;101449.13;4962081;28;97399;-75
2022/05/18 08:00:04;;;;;;;3.63;1.98;;;;;;;32.18;17.02;101449.72;4948242;28;100269;-76
2022/05/18 08:02:37;;;;;;;5.53;2.00;;;;;;;31.64;17.33;101451.03;5001894;27;97953;-74
2022/05/18 08:05:03;;;;;;;7.43;2.08;;;;;;;31.82;17.27;101453.66;4973054;28;97239;-76
2022/05/18 08:07:29;;;;;;;6.07;2.17;;;;;;;31.87;17.06;101468.44;4986827;28;97283;-73
2022/05/18 08:15:25;;;;;;;3.95;1.58;;;;;;;32.75;16.12;101440.78;4978857;28;96833;-74
2022/05/18 08:17:50;;;;;;;6.55;2.17;;;;;;;32.80;16.22;101462.03;4977423;28;96932;-73
2022/05/18 08:20:19;;;;;;;2.97;2.03;;;;;;;32.68;16.90;101456.09;4982536;28;97522;-73
2022/05/18 08:22:44;;;;;;;4.47;1.80;;;;;;;33.36;16.45;101469.28;5005891;28;97423;-73
2022/05/18 08:25:11;;;;;;;4.70;1.90;;;;;;;33.08;16.15;101474.28;4972252;28;97721;-73
2022/05/18 08:27:45;;;;;;;5.97;1.88;;;;;;;32.75;16.47;101475.28;5000258;28;97708;-73
2022/05/18 08:30:13;;;;;;;5.60;2.13;;;;;;;32.41;17.07;101471.66;4996185;28;97921;-72
2022/05/18 08:32:40;;;;;;;7.50;1.98;;;;;;;33.21;16.67;101468.31;4983074;28;97387;-73
2022/05/18 08:35:06;;;;;;;5.53;2.00;;;;;;;34.15;15.92;101465.78;4970023;28;97195;-75
2022/05/18 08:37:44;;;;;;;2.22;1.75;;;;;;;33.83;15.94;101464.88;4971447;28;96877;-72
2022/05/18 08:40:49;;;;;;;8.38;1.70;;;;;;;33.04;16.50;101472.91;4957685;28;101224;-79
2022/05/18 08:43:27;;;;;;;6.88;2.13;;;;;;;33.61;15.60;101462.97;4988240;28;100226;-79
2022/05/18 08:46:19;;;;;;;2.10;1.70;;;;;;;33.45;15.84;101463.81;4974167;28;96799;-80
2022/05/18 08:49:09;;;;;;;2.63;1.70;;;;;;;33.36;15.28;101463.84;4970911;28;97084;-83
2022/05/18 08:51:59;;;;;;;3.22;1.70;;;;;;;33.26;16.25;101462.34;4985583;28;100899;-83
2022/05/18 08:54:43;;;;;;;5.07;2.03;;;;;;;31.50;17.63;101471.47;4977557;28;97991;-80
2022/05/18 08:57:30;;;;;;;4.05;1.80;;;;;;;32.32;17.30;101463.66;5005730;28;96846;-82
2022/05/18 08:59:57;;;;;;;2.53;1.63;;;;;;;32.71;15.59;101455.75;5006730;28;96859;-80
2022/05/18 09:02:32;;;;;;;3.03;1.42;;;;;;;31.73;15.50;101455.47;4975404;28;98475;-81
2022/05/18 09:05:03;;;;;;;3.33;1.80;;;;;;;31.56;16.14;101457.25;4991493;28;101073;-81
2022/05/18 09:07:34;;;;;;;2.45;1.73;;;;;;;32.01;16.26;101448.00;4982336;28;97049;-79
2022/05/18 09:10:12;;;;;;;4.15;1.75;;;;;;;30.71;16.25;101448.84;4977127;28;97199;-79
2022/05/18 09:12:42;;;;;;;2.13;1.63;;;;;;;29.88;17.11;101450.88;4980326;28;101620;-80
2022/05/18 09:15:10;;;;;;;3.92;1.50;;;;;;;29.00;18.21;101455.66;4972868;28;98081;-80
2022/05/18 09:17:43;;;;;;;4.82;1.80;;;;;;;28.81;19.14;101459.25;4993118;28;97037;-82
2022/05/18 09:20:36;;;;;;;2.17;1.27;;;;;;;29.18;18.23;101459.38;4970921;28;97160;-82
2022/05/18 09:23:38;;;;;;;4.78;1.40;;;;;;;28.63;17.73;101457.25;4996843;28;101537;-81
2022/05/18 09:26:19;;;;;;;3.25;1.40;;;;;;;27.92;18.42;101464.66;4986072;28;97339;-82
2022/05/18 09:28:57;;;;;;;1.90;1.40;;;;;;;27.35;19.73;101476.88;4989137;28;96930;-81
2022/05/18 09:31:31;;;;;;;4.35;1.77;;;;;;;26.47;20.27;101470.78;4991098;28;97152;-82
2022/05/18 09:34:19;;;;;;;4.22;1.58;;;;;;;25.59;20.51;101484.19;4978894;28;100368;-81
2022/05/18 09:36:51;;;;;;;4.60;1.30;;;;;;;25.65;20.47;101457.66;4979408;28;97966;-80
2022/05/18 09:39:19;;;;;;;2.72;1.30;;;;;;;25.73;21.21;101468.66;4970688;28;97696;-80
2022/05/18 09:42:04;;;;;;;5.70;1.65;;;;;;;26.14;20.90;101479.78;4978315;28;97294;-80
2022/05/18 09:44:54;;;;;;;2.53;1.40;;;;;;;26.13;20.56;101478.94;4990601;28;99116;-80
2022/05/18 09:47:21;;;;;;;2.83;1.27;;;;;;;25.84;19.34;101453.56;4970481;28;100851;-80
2022/05/18 09:49:52;;;;;;;5.55;1.70;;;;;;;25.97;20.01;101473.06;4959308;28;96746;-76
2022/05/18 09:52:24;;;;;;;6.70;1.77;;;;;;;25.68;20.15;101476.25;4982164;28;97481;-77
2022/05/18 09:54:52;;;;;;;5.70;1.50;;;;;;;24.36;20.92;101466.69;4975640;28;97499;-76
2022/05/18 09:57:27;;;;;;;3.50;1.50;;;;;;;23.73;21.80;101471.22;4954768;28;101510;-77
2022/05/18 09:59:56;;;;;;;3.60;2.00;;;;;;;23.80;21.59;101480.56;4965342;28;97789;-76
2022/05/18 10:07:58;;;;;;;2.47;1.33;;;;;;;23.61;20.65;101454.16;5026919;27;97472;-79
2022/05/18 10:10:34;;;;;;;2.67;1.30;;;;;;;23.37;20.83;101458.59;4972158;28;96747;-76
2022/05/18 10:13:05;;;;;;;5.97;1.30;;;;;;;22.21;22.95;101454.75;4979577;28;96797;-76
2022/05/18 10:15:36;;;;;;;2.85;1.48;;;;;;;22.07;23.42;101457.44;4991764;28;98430;-76
2022/05/18 10:18:17;;;;;;;;;;;;;;;22.17;24.02;101471.09;4974814;28;97303;-75
2022/05/18 10:20:59;;;;;;;3.33;1.58;;;;;;;22.20;24.18;101458.41;4991323;28;97358;-76
2022/05/18 10:23:39;;;;;;;2.97;1.42;;;;;;;21.83;20.52;101449.16;4942601;28;96792;-76
2022/05/18 10:26:09;;;;;;;2.88;1.20;;;;;;;22.23;21.42;101465.38;5008694;28;99707;-76
2022/05/18 10:28:40;;;;;;;2.17;1.13;;;;;;;21.72;22.22;101431.13;4959317;28;102090;-75
2022/05/18 10:31:08;;;;;;;4.15;1.48;;;;;;;21.80;22.88;101438.69;4955766;28;96841;-76
2022/05/18 10:33:41;;;;;;;2.90;1.25;;;;;;;21.72;24.13;101465.03;4957846;28;98143;-76
2022/05/18 10:36:13;;;;;;;6.13;1.52;;;;;;;21.85;23.77;101440.09;4996146;28;97478;-89
2022/05/18 10:39:11;;;;;;;2.40;1.30;;;;;;;21.90;23.95;101445.13;4983046;28;101799;-77
2022/05/18 10:41:45;;;;;;;2.83;1.80;;;;;;;21.91;23.27;101449.53;4955003;28;97147;-74
2022/05/18 10:44:21;;;;;;;3.35;1.38;;;;;;;21.63;22.68;101439.75;4971571;28;96797;-79
2022/05/18 10:46:49;;;;;;;3.15;1.40;;;;;;;21.40;22.17;101438.50;4975780;28;97596;-77
2022/05/18 10:49:35;;;;;;;3.40;1.60;;;;;;;21.46;21.70;101435.44;4961027;28;101438;-79
2022/05/18 10:52:20;;;;;;;6.60;1.58;;;;;;;21.01;21.43;101453.31;4973295;28;96760;-77
2022/05/18 10:54:57;;;;;;;4.55;1.70;;;;;;;20.24;21.73;101448.88;4975490;28;96868;-75
2022/05/18 10:57:33;;;;;;;2.67;1.38;;;;;;;20.12;21.63;101439.75;4956485;28;101889;-76
2022/05/18 11:00:15;;;;;;;3.35;1.20;;;;;;;20.47;22.68;101435.06;4983229;28;101007;-80
2022/05/18 11:02:58;;;;;;;3.85;1.20;;;;;;;20.51;22.15;101433.97;4965693;28;97006;-77
2022/05/18 11:05:38;;;;;;;3.90;1.25;;;;;;;20.43;21.31;101446.03;4974733;28;97174;-81
2022/05/18 11:08:08;;;;;;;1.67;1.02;;;;;;;20.61;22.11;101434.31;4993125;28;97796;-81
2022/05/18 11:10:52;;;;;;;3.47;1.20;;;;;;;20.49;20.44;101432.31;4992626;28;101519;-81
2022/05/18 11:13:27;;;;;;;4.45;1.40;;;;;;;20.24;21.44;101436.38;4975214;28;97002;-81
2022/05/18 11:16:23;;;;;;;4.30;1.35;;;;;;;20.32;22.33;101428.81;4964120;28;97167;-78
2022/05/18 11:18:59;;;;;;;1.38;1.00;;;;;;;20.61;22.43;101425.44;4970073;28;97941;-78
2022/05/18 11:21:38;;;;;;;3.60;1.23;;;;;;;20.37;22.65;101420.56;4956297;28;101059;-78
2022/05/18 11:24:30;;;;;;;4.55;1.48;;;;;;;20.61;22.34;101414.78;4967207;28;96669;-78
2022/05/18 11:27:17;;;;;;;5.00;1.30;;;;;;;20.69;22.56;101412.53;4987383;28;97050;-80
2022/05/18 11:29:53;;;;;;;1.50;0.90;;;;;;;20.58;21.79;101397.16;4968015;28;101655;-78
2022/05/18 11:32:31;;;;;;;6.72;1.90;;;;;;;20.55;22.81;101400.84;4985351;28;101072;-81
2022/05/18 11:35:10;;;;;;;9.18;1.83;;;;;;;20.38;23.56;101390.28;4980766;28;96831;-82
2022/05/18 11:37:38;;;;;;;3.88;1.30;;;;;;;20.27;23.20;101400.69;4972168;28;96797;-81
2022/05/18 11:40:45;;;;;;;3.28;1.30;;;;;;;20.12;22.38;101400.63;4984296;28;98404;-82
2022/05/18 11:43:35;;;;;;;3.85;1.38;;;;;;;20.31;23.81;101404.94;4963100;28;100060;-87
2022/05/18 11:46:20;;;;;;;2.93;1.23;;;;;;;20.34;24.19;101394.09;4954253;28;96843;-81
2022/05/18 11:49:10;;;;;;;4.72;1.63;;;;;;;20.28;23.86;101389.09;4972461;28;97255;-81